sensor_id;sensor_type;location;lat;lon;timestamp;noise_LAeq;noise_LA_min;noise_LA_max;noise_LA01;noise_LA95
52872;Laerm;40124;52.198;9.902;2024-01-27T00:00:34;41.89;37.70;62.88;;
52872;Laerm;40124;52.198;9.902;2024-01-27T00:06:30;42.09;38.67;54.15;;
52872;Laerm;40124;52.198;9.902;2024-01-27T00:09:17;58.28;39.34;78.87;;
52872;Laerm;40124;52.198;9.902;2024-01-27T00:12:03;56.31;40.13;77.45;;
52872;Laerm;40124;52.198;9.902;2024-01-27T01:10:19;42.00;38.05;54.65;;
52872;Laerm;40124;52.198;9.902;2024-01-27T01:19:34;55.53;40.13;75.95;;
52872;Laerm;40124;52.198;9.902;2024-01-27T01:53:00;42.39;37.70;53.52;;
52872;Laerm;40124;52.198;9.902;2024-01-27T01:55:36;41.81;37.88;44.39;;
52872;Laerm;40124;52.198;9.902;2024-01-27T02:01:27;42.76;39.92;53.58;;
52872;Laerm;40124;52.198;9.902;2024-01-27T02:03:59;42.22;38.05;49.00;;
52872;Laerm;40124;52.198;9.902;2024-01-27T02:53:40;42.18;39.08;53.06;;
52872;Laerm;40124;52.198;9.902;2024-01-27T02:56:25;60.69;40.03;80.08;;
52872;Laerm;40124;52.198;9.902;2024-01-27T02:58:59;66.37;39.21;85.45;;
52872;Laerm;40124;52.198;9.902;2024-01-27T03:32:46;67.33;38.05;86.54;;
52872;Laerm;40124;52.198;9.902;2024-01-27T03:35:48;41.00;37.52;43.29;;
52872;Laerm;40124;52.198;9.902;2024-01-27T03:45:06;61.11;40.13;79.80;;
52872;Laerm;40124;52.198;9.902;2024-01-27T03:51:04;42.23;38.67;45.69;;
52872;Laerm;40124;52.198;9.902;2024-01-27T04:06:17;62.52;40.03;79.90;;
52872;Laerm;40124;52.198;9.902;2024-01-27T04:08:51;64.26;40.13;82.97;;
52872;Laerm;40124;52.198;9.902;2024-01-27T04:11:21;59.45;40.13;79.98;;
52872;Laerm;40124;52.198;9.902;2024-01-27T04:20:10;42.62;39.81;44.11;;
52872;Laerm;40124;52.198;9.902;2024-01-27T05:29:01;68.29;43.04;84.37;;
52872;Laerm;40124;52.198;9.902;2024-01-27T05:50:13;62.27;41.30;78.64;;
52872;Laerm;40124;52.198;9.902;2024-01-27T06:40:21;68.13;42.16;85.59;;
52872;Laerm;40124;52.198;9.902;2024-01-27T06:52:38;66.62;41.53;80.55;;
52872;Laerm;40124;52.198;9.902;2024-01-27T07:32:32;67.39;43.49;82.79;;
52872;Laerm;40124;52.198;9.902;2024-01-27T07:38:35;68.22;42.98;82.11;;
52872;Laerm;40124;52.198;9.902;2024-01-27T07:41:13;71.59;43.77;87.53;;
52872;Laerm;40124;52.198;9.902;2024-01-27T08:05:22;69.83;44.35;81.49;;
52872;Laerm;40124;52.198;9.902;2024-01-27T08:17:17;70.23;44.47;81.88;;
52872;Laerm;40124;52.198;9.902;2024-01-27T08:19:52;67.82;42.65;82.42;;
52872;Laerm;40124;52.198;9.902;2024-01-27T08:23:02;68.77;43.44;82.50;;
52872;Laerm;40124;52.198;9.902;2024-01-27T08:25:33;68.76;44.35;81.24;;
52872;Laerm;40124;52.198;9.902;2024-01-27T08:28:02;67.63;43.09;80.07;;
52872;Laerm;40124;52.198;9.902;2024-01-27T08:30:38;69.73;44.51;82.63;;
52872;Laerm;40124;52.198;9.902;2024-01-27T08:33:07;68.67;44.15;81.50;;
52872;Laerm;40124;52.198;9.902;2024-01-27T08:35:42;69.70;45.42;80.29;;
52872;Laerm;40124;52.198;9.902;2024-01-27T08:38:32;70.68;50.01;83.16;;
52872;Laerm;40124;52.198;9.902;2024-01-27T08:41:09;69.07;44.27;81.50;;
52872;Laerm;40124;52.198;9.902;2024-01-27T08:44:07;70.05;43.04;82.58;;
52872;Laerm;40124;52.198;9.902;2024-01-27T08:47:07;70.32;45.33;81.93;;
52872;Laerm;40124;52.198;9.902;2024-01-27T08:49:43;71.45;49.16;86.20;;
52872;Laerm;40124;52.198;9.902;2024-01-27T08:52:22;70.65;45.42;82.78;;
52872;Laerm;40124;52.198;9.902;2024-01-27T08:55:06;70.28;45.91;81.58;;
52872;Laerm;40124;52.198;9.902;2024-01-27T08:58:15;71.60;51.47;85.94;;
52872;Laerm;40124;52.198;9.902;2024-01-27T09:03:42;67.23;42.98;79.79;;
52872;Laerm;40124;52.198;9.902;2024-01-27T09:06:22;68.97;44.19;82.32;;
52872;Laerm;40124;52.198;9.902;2024-01-27T09:09:09;70.63;49.04;81.65;;
52872;Laerm;40124;52.198;9.902;2024-01-27T09:12:07;70.13;47.00;82.17;;
52872;Laerm;40124;52.198;9.902;2024-01-27T09:14:50;69.58;44.11;81.73;;
52872;Laerm;40124;52.198;9.902;2024-01-27T09:17:34;69.82;45.17;83.01;;
52872;Laerm;40124;52.198;9.902;2024-01-27T09:20:01;70.91;52.05;82.94;;
52872;Laerm;40124;52.198;9.902;2024-01-27T09:22:33;70.08;43.63;81.45;;
52872;Laerm;40124;52.198;9.902;2024-01-27T09:25:15;70.59;49.20;82.14;;
52872;Laerm;40124;52.198;9.902;2024-01-27T09:27:52;71.70;52.41;84.05;;
52872;Laerm;40124;52.198;9.902;2024-01-27T09:30:48;69.31;45.54;80.51;;
52872;Laerm;40124;52.198;9.902;2024-01-27T09:33:35;71.16;52.55;80.51;;
52872;Laerm;40124;52.198;9.902;2024-01-27T09:36:04;70.50;50.92;80.33;;
52872;Laerm;40124;52.198;9.902;2024-01-27T09:38:35;69.68;45.45;83.77;;
52872;Laerm;40124;52.198;9.902;2024-01-27T09:41:04;72.36;48.73;84.15;;
52872;Laerm;40124;52.198;9.902;2024-01-27T09:43:33;70.04;45.63;80.59;;
52872;Laerm;40124;52.198;9.902;2024-01-27T09:57:42;68.44;45.94;80.91;;
52872;Laerm;40124;52.198;9.902;2024-01-27T10:03:44;71.90;51.45;82.48;;
52872;Laerm;40124;52.198;9.902;2024-01-27T10:08:51;70.25;43.94;80.41;;
52872;Laerm;40124;52.198;9.902;2024-01-27T10:11:19;71.42;51.10;82.52;;
52872;Laerm;40124;52.198;9.902;2024-01-27T10:13:55;68.73;48.70;78.88;;
52872;Laerm;40124;52.198;9.902;2024-01-27T10:16:51;69.17;41.38;81.52;;
52872;Laerm;40124;52.198;9.902;2024-01-27T10:19:18;71.13;44.69;82.12;;
52872;Laerm;40124;52.198;9.902;2024-01-27T10:22:09;69.93;44.11;80.61;;
52872;Laerm;40124;52.198;9.902;2024-01-27T10:24:35;71.60;50.51;82.95;;
52872;Laerm;40124;52.198;9.902;2024-01-27T10:27:01;70.94;47.02;81.07;;
52872;Laerm;40124;52.198;9.902;2024-01-27T10:29:59;71.57;47.67;82.80;;
52872;Laerm;40124;52.198;9.902;2024-01-27T10:32:30;70.06;42.65;81.46;;
52872;Laerm;40124;52.198;9.902;2024-01-27T10:35:08;69.00;46.15;82.05;;
52872;Laerm;40124;52.198;9.902;2024-01-27T10:37:37;71.49;42.41;82.00;;
52872;Laerm;40124;52.198;9.902;2024-01-27T10:40:22;70.34;48.58;80.95;;
52872;Laerm;40124;52.198;9.902;2024-01-27T10:45:41;70.78;43.86;88.38;;
52872;Laerm;40124;52.198;9.902;2024-01-27T10:48:10;71.67;45.07;81.95;;
52872;Laerm;40124;52.198;9.902;2024-01-27T10:51:07;70.15;47.90;80.65;;
52872;Laerm;40124;52.198;9.902;2024-01-27T10:53:37;69.27;45.30;83.80;;
52872;Laerm;40124;52.198;9.902;2024-01-27T10:56:12;70.32;43.68;81.72;;
52872;Laerm;40124;52.198;9.902;2024-01-27T10:58:41;71.27;45.91;82.16;;
52872;Laerm;40124;52.198;9.902;2024-01-27T11:01:26;70.98;47.50;80.84;;
52872;Laerm;40124;52.198;9.902;2024-01-27T11:04:04;72.36;46.84;85.27;;
52872;Laerm;40124;52.198;9.902;2024-01-27T11:06:56;70.14;46.50;85.23;;
52872;Laerm;40124;52.198;9.902;2024-01-27T11:15:30;71.07;50.49;81.82;;
52872;Laerm;40124;52.198;9.902;2024-01-27T11:21:15;71.21;45.30;81.42;;
52872;Laerm;40124;52.198;9.902;2024-01-27T11:23:44;69.85;44.35;84.33;;
52872;Laerm;40124;52.198;9.902;2024-01-27T11:26:40;70.29;45.27;82.81;;
52872;Laerm;40124;52.198;9.902;2024-01-27T11:29:13;70.00;45.80;81.66;;
52872;Laerm;40124;52.198;9.902;2024-01-27T11:31:48;71.01;45.07;81.07;;
52872;Laerm;40124;52.198;9.902;2024-01-27T11:34:14;70.64;50.75;80.74;;
52872;Laerm;40124;52.198;9.902;2024-01-27T11:49:18;68.24;46.30;81.36;;
52872;Laerm;40124;52.198;9.902;2024-01-27T11:51:47;70.40;43.09;83.41;;
52872;Laerm;40124;52.198;9.902;2024-01-27T11:54:28;71.64;47.59;82.51;;
52872;Laerm;40124;52.198;9.902;2024-01-27T11:57:29;72.02;49.69;83.65;;
52872;Laerm;40124;52.198;9.902;2024-01-27T12:00:04;70.62;43.34;84.43;;
52872;Laerm;40124;52.198;9.902;2024-01-27T12:02:31;70.41;45.83;83.89;;
52872;Laerm;40124;52.198;9.902;2024-01-27T12:05:20;70.56;49.34;81.59;;
52872;Laerm;40124;52.198;9.902;2024-01-27T12:07:50;68.25;41.30;82.32;;
52872;Laerm;40124;52.198;9.902;2024-01-27T12:10:19;71.23;52.09;81.33;;
52872;Laerm;40124;52.198;9.902;2024-01-27T12:12:48;70.13;45.11;81.49;;
52872;Laerm;40124;52.198;9.902;2024-01-27T12:15:17;72.03;45.33;84.47;;
52872;Laerm;40124;52.198;9.902;2024-01-27T12:24:26;72.64;51.23;83.67;;
52872;Laerm;40124;52.198;9.902;2024-01-27T12:27:01;70.93;45.27;88.57;;
52872;Laerm;40124;52.198;9.902;2024-01-27T12:35:36;69.89;42.00;82.85;;
52872;Laerm;40124;52.198;9.902;2024-01-27T12:38:32;71.32;50.05;83.59;;
52872;Laerm;40124;52.198;9.902;2024-01-27T12:43:52;71.51;46.64;81.63;;
52872;Laerm;40124;52.198;9.902;2024-01-27T12:46:21;69.60;46.25;80.96;;
52872;Laerm;40124;52.198;9.902;2024-01-27T12:49:02;68.67;46.80;81.09;;
52872;Laerm;40124;52.198;9.902;2024-01-27T12:51:39;72.53;47.55;84.55;;
52872;Laerm;40124;52.198;9.902;2024-01-27T12:54:14;71.07;46.40;81.17;;
52872;Laerm;40124;52.198;9.902;2024-01-27T12:56:41;70.32;44.54;80.45;;
52872;Laerm;40124;52.198;9.902;2024-01-27T12:59:46;70.95;43.77;81.48;;
52872;Laerm;40124;52.198;9.902;2024-01-27T13:02:28;67.19;42.22;80.22;;
52872;Laerm;40124;52.198;9.902;2024-01-27T13:04:54;70.40;47.93;80.93;;
52872;Laerm;40124;52.198;9.902;2024-01-27T13:07:33;69.37;44.03;81.12;;
52872;Laerm;40124;52.198;9.902;2024-01-27T13:10:06;70.89;45.69;81.52;;
52872;Laerm;40124;52.198;9.902;2024-01-27T13:12:38;68.21;43.99;80.47;;
52872;Laerm;40124;52.198;9.902;2024-01-27T13:15:12;70.24;45.63;79.39;;
52872;Laerm;40124;52.198;9.902;2024-01-27T13:17:59;70.27;43.68;81.71;;
52872;Laerm;40124;52.198;9.902;2024-01-27T13:20:31;70.63;44.19;82.13;;
52872;Laerm;40124;52.198;9.902;2024-01-27T13:23:06;70.89;49.15;82.77;;
52872;Laerm;40124;52.198;9.902;2024-01-27T13:25:35;70.97;46.84;82.42;;
52872;Laerm;40124;52.198;9.902;2024-01-27T13:28:01;70.15;47.16;81.64;;
52872;Laerm;40124;52.198;9.902;2024-01-27T13:30:37;73.25;48.02;94.90;;
52872;Laerm;40124;52.198;9.902;2024-01-27T13:36:10;69.12;42.71;83.21;;
52872;Laerm;40124;52.198;9.902;2024-01-27T13:38:45;71.81;43.81;88.61;;
52872;Laerm;40124;52.198;9.902;2024-01-27T13:41:14;70.67;46.20;84.65;;
52872;Laerm;40124;52.198;9.902;2024-01-27T13:43:41;71.38;48.40;84.29;;
52872;Laerm;40124;52.198;9.902;2024-01-27T13:46:26;69.64;47.48;81.12;;
52872;Laerm;40124;52.198;9.902;2024-01-27T13:49:04;68.60;41.53;81.89;;
52872;Laerm;40124;52.198;9.902;2024-01-27T13:51:34;71.15;51.28;82.58;;
52872;Laerm;40124;52.198;9.902;2024-01-27T13:54:05;70.38;50.68;80.51;;
52872;Laerm;40124;52.198;9.902;2024-01-27T13:56:46;72.07;46.80;85.15;;
52872;Laerm;40124;52.198;9.902;2024-01-27T13:59:37;70.66;45.04;81.00;;
52872;Laerm;40124;52.198;9.902;2024-01-27T14:05:14;72.09;47.50;80.91;;
52872;Laerm;40124;52.198;9.902;2024-01-27T14:07:48;70.69;42.16;87.07;;
52872;Laerm;40124;52.198;9.902;2024-01-27T14:10:19;71.14;47.18;83.52;;
52872;Laerm;40124;52.198;9.902;2024-01-27T14:13:07;71.72;46.30;84.13;;
52872;Laerm;40124;52.198;9.902;2024-01-27T14:15:44;71.17;44.79;81.39;;
52872;Laerm;40124;52.198;9.902;2024-01-27T14:21:51;69.83;38.67;82.37;;
52872;Laerm;40124;52.198;9.902;2024-01-27T14:24:20;70.89;44.90;83.93;;
52872;Laerm;40124;52.198;9.902;2024-01-27T14:26:52;69.22;41.46;83.27;;
52872;Laerm;40124;52.198;9.902;2024-01-27T14:29:18;70.57;44.83;81.71;;
52872;Laerm;40124;52.198;9.902;2024-01-27T14:31:53;72.52;43.24;88.48;;
52872;Laerm;40124;52.198;9.902;2024-01-27T14:34:33;71.99;43.86;84.57;;
52872;Laerm;40124;52.198;9.902;2024-01-27T14:37:02;67.09;41.96;80.70;;
52872;Laerm;40124;52.198;9.902;2024-01-27T14:39:29;70.93;45.86;84.62;;
52872;Laerm;40124;52.198;9.902;2024-01-27T14:42:04;69.89;43.39;81.48;;
52872;Laerm;40124;52.198;9.902;2024-01-27T14:44:40;68.68;42.93;81.23;;
52872;Laerm;40124;52.198;9.902;2024-01-27T14:47:19;70.76;47.70;80.75;;
52872;Laerm;40124;52.198;9.902;2024-01-27T14:49:45;70.75;44.97;82.31;;
52872;Laerm;40124;52.198;9.902;2024-01-27T14:55:03;71.91;46.97;86.73;;
52872;Laerm;40124;52.198;9.902;2024-01-27T14:57:51;68.91;46.28;80.28;;
52872;Laerm;40124;52.198;9.902;2024-01-27T15:00:27;67.88;45.17;79.89;;
52872;Laerm;40124;52.198;9.902;2024-01-27T15:03:05;70.54;43.34;81.99;;
52872;Laerm;40124;52.198;9.902;2024-01-27T15:05:40;70.55;43.33;82.02;;
52872;Laerm;40124;52.198;9.902;2024-01-27T15:08:11;70.06;44.54;82.90;;
52872;Laerm;40124;52.198;9.902;2024-01-27T15:11:04;69.24;43.39;80.85;;
52872;Laerm;40124;52.198;9.902;2024-01-27T15:13:47;71.64;44.35;85.64;;
52872;Laerm;40124;52.198;9.902;2024-01-27T15:16:28;70.67;43.77;82.77;;
52872;Laerm;40124;52.198;9.902;2024-01-27T15:19:04;69.36;44.80;81.14;;
52872;Laerm;40124;52.198;9.902;2024-01-27T15:21:30;68.33;43.19;81.41;;
52872;Laerm;40124;52.198;9.902;2024-01-27T15:27:32;71.26;43.63;90.62;;
52872;Laerm;40124;52.198;9.902;2024-01-27T15:29:58;70.20;47.06;81.83;;
52872;Laerm;40124;52.198;9.902;2024-01-27T15:32:32;68.84;44.58;79.28;;
52872;Laerm;40124;52.198;9.902;2024-01-27T15:35:07;68.76;44.27;79.79;;
52872;Laerm;40124;52.198;9.902;2024-01-27T15:37:42;68.81;42.88;82.60;;
52872;Laerm;40124;52.198;9.902;2024-01-27T15:40:12;71.00;52.99;81.90;;
52872;Laerm;40124;52.198;9.902;2024-01-27T15:42:44;70.24;42.93;84.01;;
52872;Laerm;40124;52.198;9.902;2024-01-27T15:45:13;68.97;44.35;83.11;;
52872;Laerm;40124;52.198;9.902;2024-01-27T15:48:05;70.19;43.24;81.96;;
52872;Laerm;40124;52.198;9.902;2024-01-27T15:50:39;70.96;44.76;84.44;;
52872;Laerm;40124;52.198;9.902;2024-01-27T15:56:27;67.18;42.16;81.19;;
52872;Laerm;40124;52.198;9.902;2024-01-27T15:59:05;70.72;48.42;81.35;;
52872;Laerm;40124;52.198;9.902;2024-01-27T16:01:31;68.48;43.63;80.27;;
52872;Laerm;40124;52.198;9.902;2024-01-27T16:04:00;69.50;42.06;79.89;;
52872;Laerm;40124;52.198;9.902;2024-01-27T16:06:34;71.87;44.90;84.16;;
52872;Laerm;40124;52.198;9.902;2024-01-27T16:09:00;70.08;47.55;80.96;;
52872;Laerm;40124;52.198;9.902;2024-01-27T16:11:27;65.06;43.19;78.27;;
52872;Laerm;40124;52.198;9.902;2024-01-27T16:13:59;70.66;46.13;81.11;;
52872;Laerm;40124;52.198;9.902;2024-01-27T16:25:39;71.80;47.77;88.55;;
52872;Laerm;40124;52.198;9.902;2024-01-27T16:28:18;71.01;51.31;81.48;;
52872;Laerm;40124;52.198;9.902;2024-01-27T16:31:04;68.98;48.12;79.86;;
52872;Laerm;40124;52.198;9.902;2024-01-27T16:33:39;70.84;48.29;81.98;;
52872;Laerm;40124;52.198;9.902;2024-01-27T16:36:11;70.30;47.88;82.09;;
52872;Laerm;40124;52.198;9.902;2024-01-27T16:38:42;69.32;45.48;80.08;;
52872;Laerm;40124;52.198;9.902;2024-01-27T16:41:40;70.97;47.00;85.76;;
52872;Laerm;40124;52.198;9.902;2024-01-27T16:44:18;67.94;44.31;80.14;;
52872;Laerm;40124;52.198;9.902;2024-01-27T16:46:49;68.65;47.32;81.29;;
52872;Laerm;40124;52.198;9.902;2024-01-27T16:49:16;71.56;47.79;81.25;;
52872;Laerm;40124;52.198;9.902;2024-01-27T16:51:45;70.57;46.40;80.39;;
52872;Laerm;40124;52.198;9.902;2024-01-27T16:54:14;70.40;47.84;79.61;;
52872;Laerm;40124;52.198;9.902;2024-01-27T16:56:53;69.67;46.59;81.22;;
52872;Laerm;40124;52.198;9.902;2024-01-27T16:59:36;69.71;43.29;82.17;;
52872;Laerm;40124;52.198;9.902;2024-01-27T17:02:24;70.57;48.74;81.36;;
52872;Laerm;40124;52.198;9.902;2024-01-27T17:04:59;69.55;41.14;82.34;;
52872;Laerm;40124;52.198;9.902;2024-01-27T17:08:06;69.73;45.97;81.29;;
52872;Laerm;40124;52.198;9.902;2024-01-27T17:11:07;68.49;43.54;79.84;;
52872;Laerm;40124;52.198;9.902;2024-01-27T17:14:08;68.63;40.62;80.42;;
52872;Laerm;40124;52.198;9.902;2024-01-27T17:16:43;70.17;43.49;82.92;;
52872;Laerm;40124;52.198;9.902;2024-01-27T17:19:18;70.68;47.77;83.04;;
52872;Laerm;40124;52.198;9.902;2024-01-27T17:22:07;70.55;51.91;82.41;;
52872;Laerm;40124;52.198;9.902;2024-01-27T17:24:44;68.19;41.22;81.50;;
52872;Laerm;40124;52.198;9.902;2024-01-27T17:30:39;70.80;44.39;83.14;;
52872;Laerm;40124;52.198;9.902;2024-01-27T17:36:35;67.81;40.89;82.59;;
52872;Laerm;40124;52.198;9.902;2024-01-27T17:39:01;69.15;41.68;81.29;;
52872;Laerm;40124;52.198;9.902;2024-01-27T17:41:35;66.59;41.30;80.56;;
52872;Laerm;40124;52.198;9.902;2024-01-27T17:44:02;69.80;40.62;85.54;;
52872;Laerm;40124;52.198;9.902;2024-01-27T17:46:30;67.99;42.53;80.57;;
52872;Laerm;40124;52.198;9.902;2024-01-27T17:49:11;70.70;44.76;87.23;;
52872;Laerm;40124;52.198;9.902;2024-01-27T17:52:01;68.94;42.47;80.56;;
52872;Laerm;40124;52.198;9.902;2024-01-27T17:55:10;68.99;46.84;80.98;;
52872;Laerm;40124;52.198;9.902;2024-01-27T17:57:31;69.30;48.66;80.71;;
52872;Laerm;40124;52.198;9.902;2024-01-27T18:00:12;69.80;44.31;80.06;;
52872;Laerm;40124;52.198;9.902;2024-01-27T18:02:46;71.19;45.54;84.59;;
52872;Laerm;40124;52.198;9.902;2024-01-27T18:05:18;70.60;53.70;83.54;;
52872;Laerm;40124;52.198;9.902;2024-01-27T18:07:45;63.72;41.46;78.77;;
52872;Laerm;40124;52.198;9.902;2024-01-27T18:10:13;69.01;43.39;80.28;;
52872;Laerm;40124;52.198;9.902;2024-01-27T18:18:14;68.39;44.83;81.35;;
52872;Laerm;40124;52.198;9.902;2024-01-27T18:20:40;68.91;42.93;79.61;;
52872;Laerm;40124;52.198;9.902;2024-01-27T18:23:15;68.07;45.36;80.41;;
52872;Laerm;40124;52.198;9.902;2024-01-27T18:25:53;67.84;43.24;81.30;;
52872;Laerm;40124;52.198;9.902;2024-01-27T18:28:28;68.53;41.53;82.10;;
52872;Laerm;40124;52.198;9.902;2024-01-27T18:37:26;69.89;43.58;82.74;;
52872;Laerm;40124;52.198;9.902;2024-01-27T18:40:08;69.79;45.75;81.68;;
52872;Laerm;40124;52.198;9.902;2024-01-27T18:42:40;71.34;44.90;84.86;;
52872;Laerm;40124;52.198;9.902;2024-01-27T18:45:15;66.17;43.09;79.78;;
52872;Laerm;40124;52.198;9.902;2024-01-27T18:47:53;68.54;41.75;80.78;;
52872;Laerm;40124;52.198;9.902;2024-01-27T18:50:47;69.23;42.16;84.89;;
52872;Laerm;40124;52.198;9.902;2024-01-27T18:53:15;66.34;38.81;82.69;;
52872;Laerm;40124;52.198;9.902;2024-01-27T18:56:19;67.42;42.09;80.73;;
52872;Laerm;40124;52.198;9.902;2024-01-27T19:01:55;69.72;42.88;81.61;;
52872;Laerm;40124;52.198;9.902;2024-01-27T19:04:22;65.66;43.04;78.85;;
52872;Laerm;40124;52.198;9.902;2024-01-27T19:07:06;69.04;41.68;81.47;;
52872;Laerm;40124;52.198;9.902;2024-01-27T19:09:33;67.97;42.88;80.35;;
52872;Laerm;40124;52.198;9.902;2024-01-27T19:12:02;70.11;42.98;82.04;;
52872;Laerm;40124;52.198;9.902;2024-01-27T19:15:02;69.06;41.22;80.83;;
52872;Laerm;40124;52.198;9.902;2024-01-27T19:17:33;68.10;39.70;79.77;;
52872;Laerm;40124;52.198;9.902;2024-01-27T19:20:02;64.65;38.37;79.57;;
52872;Laerm;40124;52.198;9.902;2024-01-27T19:28:36;68.55;42.47;79.93;;
52872;Laerm;40124;52.198;9.902;2024-01-27T19:34:18;68.77;42.98;81.72;;
52872;Laerm;40124;52.198;9.902;2024-01-27T19:36:55;66.90;43.29;80.65;;
52872;Laerm;40124;52.198;9.902;2024-01-27T19:39:26;64.72;38.21;80.08;;
52872;Laerm;40124;52.198;9.902;2024-01-27T19:42:07;66.95;38.67;79.91;;
52872;Laerm;40124;52.198;9.902;2024-01-27T19:45:02;69.20;43.99;82.27;;
52872;Laerm;40124;52.198;9.902;2024-01-27T19:48:03;65.37;37.88;81.22;;
52872;Laerm;40124;52.198;9.902;2024-01-27T19:50:39;67.10;41.06;80.99;;
52872;Laerm;40124;52.198;9.902;2024-01-27T19:53:05;68.42;38.52;82.82;;
52872;Laerm;40124;52.198;9.902;2024-01-27T19:55:46;67.17;38.81;82.09;;
52872;Laerm;40124;52.198;9.902;2024-01-27T19:58:18;64.66;38.21;79.94;;
52872;Laerm;40124;52.198;9.902;2024-01-27T20:00:56;63.11;36.20;80.16;;
52872;Laerm;40124;52.198;9.902;2024-01-27T20:03:31;65.60;37.12;81.17;;
52872;Laerm;40124;52.198;9.902;2024-01-27T20:06:00;66.72;38.95;81.28;;
52872;Laerm;40124;52.198;9.902;2024-01-27T20:08:29;65.70;37.70;81.39;;
52872;Laerm;40124;52.198;9.902;2024-01-27T20:11:04;65.40;43.14;80.68;;
52872;Laerm;40124;52.198;9.902;2024-01-27T20:13:47;68.59;40.71;81.07;;
52872;Laerm;40124;52.198;9.902;2024-01-27T20:16:28;65.94;41.82;81.17;;
52872;Laerm;40124;52.198;9.902;2024-01-27T20:21:53;67.70;38.37;83.33;;
52872;Laerm;40124;52.198;9.902;2024-01-27T20:24:19;68.09;41.22;79.78;;
52872;Laerm;40124;52.198;9.902;2024-01-27T20:26:54;65.94;38.81;82.35;;
52872;Laerm;40124;52.198;9.902;2024-01-27T20:29:37;64.99;39.46;79.72;;
52872;Laerm;40124;52.198;9.902;2024-01-27T20:32:08;64.51;39.92;80.85;;
52872;Laerm;40124;52.198;9.902;2024-01-27T20:37:55;64.43;37.12;81.12;;
52872;Laerm;40124;52.198;9.902;2024-01-27T20:43:16;65.54;36.98;80.81;;
52872;Laerm;40124;52.198;9.902;2024-01-27T20:45:52;69.87;40.62;83.11;;
52872;Laerm;40124;52.198;9.902;2024-01-27T20:51:55;64.59;40.23;79.44;;
52872;Laerm;40124;52.198;9.902;2024-01-27T20:54:27;65.41;40.54;84.70;;
52872;Laerm;40124;52.198;9.902;2024-01-27T20:59:58;67.29;40.03;80.60;;
52872;Laerm;40124;52.198;9.902;2024-01-27T21:06:12;66.65;42.35;81.78;;
52872;Laerm;40124;52.198;9.902;2024-01-27T21:08:33;63.42;36.45;80.78;;
52872;Laerm;40124;52.198;9.902;2024-01-27T21:11:02;65.50;39.81;79.43;;
52872;Laerm;40124;52.198;9.902;2024-01-27T21:13:34;63.29;39.68;79.69;;
52872;Laerm;40124;52.198;9.902;2024-01-27T21:16:05;59.98;38.52;80.56;;
52872;Laerm;40124;52.198;9.902;2024-01-27T21:18:31;66.85;41.30;81.18;;
52872;Laerm;40124;52.198;9.902;2024-01-27T21:20:57;65.18;41.06;79.27;;
52872;Laerm;40124;52.198;9.902;2024-01-27T21:23:30;68.62;42.59;82.92;;
52872;Laerm;40124;52.198;9.902;2024-01-27T21:25:56;67.86;39.34;84.34;;
52872;Laerm;40124;52.198;9.902;2024-01-27T21:28:23;68.31;42.79;81.99;;
52872;Laerm;40124;52.198;9.902;2024-01-27T21:30:51;68.97;43.19;81.57;;
52872;Laerm;40124;52.198;9.902;2024-01-27T21:33:20;66.76;42.53;82.21;;
52872;Laerm;40124;52.198;9.902;2024-01-27T21:36:04;66.93;43.81;80.44;;
52872;Laerm;40124;52.198;9.902;2024-01-27T21:38:39;64.56;41.22;80.90;;
52872;Laerm;40124;52.198;9.902;2024-01-27T21:41:11;67.02;40.53;79.39;;
52872;Laerm;40124;52.198;9.902;2024-01-27T21:43:52;67.37;41.96;80.94;;
52872;Laerm;40124;52.198;9.902;2024-01-27T21:46:28;64.01;38.81;80.44;;
52872;Laerm;40124;52.198;9.902;2024-01-27T21:49:15;64.01;37.52;78.86;;
52872;Laerm;40124;52.198;9.902;2024-01-27T21:52:01;66.82;43.19;80.74;;
52872;Laerm;40124;52.198;9.902;2024-01-27T21:54:38;65.18;39.34;80.64;;
52872;Laerm;40124;52.198;9.902;2024-01-27T21:57:10;58.94;39.81;76.24;;
52872;Laerm;40124;52.198;9.902;2024-01-27T21:59:39;66.68;40.53;82.12;;
52872;Laerm;40124;52.198;9.902;2024-01-27T22:02:15;64.40;38.21;79.22;;
52872;Laerm;40124;52.198;9.902;2024-01-27T22:04:44;56.59;36.45;77.26;;
52872;Laerm;40124;52.198;9.902;2024-01-27T22:07:16;64.18;36.69;81.39;;
52872;Laerm;40124;52.198;9.902;2024-01-27T22:09:42;63.50;36.20;82.77;;
52872;Laerm;40124;52.198;9.902;2024-01-27T22:12:14;64.00;37.32;82.17;;
52872;Laerm;40124;52.198;9.902;2024-01-27T22:14:48;64.91;38.05;80.24;;
52872;Laerm;40124;52.198;9.902;2024-01-27T22:17:14;63.38;39.81;80.69;;
52872;Laerm;40124;52.198;9.902;2024-01-27T22:19:46;65.77;42.88;80.90;;
52872;Laerm;40124;52.198;9.902;2024-01-27T22:22:14;66.06;37.52;83.72;;
52872;Laerm;40124;52.198;9.902;2024-01-27T22:25:01;60.51;35.94;79.35;;
52872;Laerm;40124;52.198;9.902;2024-01-27T22:27:37;56.65;35.66;76.84;;
52872;Laerm;40124;52.198;9.902;2024-01-27T22:30:06;65.35;35.94;79.21;;
52872;Laerm;40124;52.198;9.902;2024-01-27T22:32:37;65.49;38.67;79.52;;
52872;Laerm;40124;52.198;9.902;2024-01-27T22:35:11;63.75;37.12;80.64;;
52872;Laerm;40124;52.198;9.902;2024-01-27T22:37:44;65.98;39.58;81.21;;
52872;Laerm;40124;52.198;9.902;2024-01-27T22:40:09;61.91;38.05;79.26;;
52872;Laerm;40124;52.198;9.902;2024-01-27T22:42:34;63.85;39.58;80.74;;
52872;Laerm;40124;52.198;9.902;2024-01-27T22:45:00;57.27;37.32;75.83;;
52872;Laerm;40124;52.198;9.902;2024-01-27T22:47:25;60.41;37.12;80.92;;
52872;Laerm;40124;52.198;9.902;2024-01-27T22:49:50;59.83;36.91;79.77;;
52872;Laerm;40124;52.198;9.902;2024-01-27T22:54:54;57.74;37.32;77.73;;
52872;Laerm;40124;52.198;9.902;2024-01-27T22:57:19;65.42;36.91;81.99;;
52872;Laerm;40124;52.198;9.902;2024-01-27T22:59:45;59.94;37.88;78.75;;
52872;Laerm;40124;52.198;9.902;2024-01-27T23:02:12;43.47;38.05;58.79;;
52872;Laerm;40124;52.198;9.902;2024-01-27T23:04:38;63.29;38.52;80.87;;
52872;Laerm;40124;52.198;9.902;2024-01-27T23:07:04;60.39;38.52;77.49;;
52872;Laerm;40124;52.198;9.902;2024-01-27T23:09:35;40.82;37.52;43.09;;
52872;Laerm;40124;52.198;9.902;2024-01-27T23:12:20;45.58;37.32;60.08;;
52872;Laerm;40124;52.198;9.902;2024-01-27T23:14:46;62.78;38.21;79.20;;
52872;Laerm;40124;52.198;9.902;2024-01-27T23:20:38;59.01;38.05;77.17;;
52872;Laerm;40124;52.198;9.902;2024-01-27T23:23:03;65.32;39.92;81.92;;
52872;Laerm;40124;52.198;9.902;2024-01-27T23:25:31;57.76;38.81;76.85;;
52872;Laerm;40124;52.198;9.902;2024-01-27T23:27:59;63.78;38.67;80.37;;
52872;Laerm;40124;52.198;9.902;2024-01-27T23:30:25;63.58;36.91;79.45;;
52872;Laerm;40124;52.198;9.902;2024-01-27T23:32:50;60.63;37.88;81.02;;
52872;Laerm;40124;52.198;9.902;2024-01-27T23:35:16;62.80;38.37;78.29;;
52872;Laerm;40124;52.198;9.902;2024-01-27T23:37:41;63.82;39.70;80.86;;
52872;Laerm;40124;52.198;9.902;2024-01-27T23:40:11;68.13;41.68;84.92;;
52872;Laerm;40124;52.198;9.902;2024-01-27T23:42:46;58.92;37.52;78.88;;
52872;Laerm;40124;52.198;9.902;2024-01-27T23:51:26;60.72;37.12;77.46;;
